sensor_id;sensor_type;location;lat;lon;timestamp;P1;durP1;ratioP1;P2;durP2;ratioP2
8986;SDS011;4529;51.360;12.474;2022-08-01T00:00:33;3.97;;;3.67;;
8986;SDS011;4529;51.360;12.474;2022-08-01T00:05:37;3.87;;;3.57;;
8986;SDS011;4529;51.360;12.474;2022-08-01T00:10:41;4.07;;;3.77;;
8986;SDS011;4529;51.360;12.474;2022-08-01T00:15:46;3.60;;;3.30;;
8986;SDS011;4529;51.360;12.474;2022-08-01T00:20:50;3.80;;;3.50;;
8986;SDS011;4529;51.360;12.474;2022-08-01T00:25:54;4.23;;;3.93;;
8986;SDS011;4529;51.360;12.474;2022-08-01T00:30:58;4.17;;;3.73;;
8986;SDS011;4529;51.360;12.474;2022-08-01T00:36:02;3.83;;;3.50;;
8986;SDS011;4529;51.360;12.474;2022-08-01T00:41:06;3.80;;;3.50;;
8986;SDS011;4529;51.360;12.474;2022-08-01T00:46:10;3.47;;;3.27;;
8986;SDS011;4529;51.360;12.474;2022-08-01T00:51:14;3.90;;;3.60;;
8986;SDS011;4529;51.360;12.474;2022-08-01T00:56:19;3.77;;;3.40;;
8986;SDS011;4529;51.360;12.474;2022-08-01T01:01:24;3.87;;;3.47;;
8986;SDS011;4529;51.360;12.474;2022-08-01T01:06:32;3.73;;;3.53;;
8986;SDS011;4529;51.360;12.474;2022-08-01T01:17:41;4.07;;;3.77;;
8986;SDS011;4529;51.360;12.474;2022-08-01T01:28:23;3.77;;;3.47;;
8986;SDS011;4529;51.360;12.474;2022-08-01T01:33:23;3.67;;;3.37;;
8986;SDS011;4529;51.360;12.474;2022-08-01T01:38:28;4.47;;;3.70;;
8986;SDS011;4529;51.360;12.474;2022-08-01T01:43:30;5.27;;;3.67;;
8986;SDS011;4529;51.360;12.474;2022-08-01T01:48:33;3.70;;;3.40;;
8986;SDS011;4529;51.360;12.474;2022-08-01T01:53:37;3.47;;;3.03;;
8986;SDS011;4529;51.360;12.474;2022-08-01T01:58:40;3.80;;;3.50;;
8986;SDS011;4529;51.360;12.474;2022-08-01T02:03:44;3.63;;;3.33;;
8986;SDS011;4529;51.360;12.474;2022-08-01T02:08:47;4.27;;;3.43;;
8986;SDS011;4529;51.360;12.474;2022-08-01T02:13:57;5.23;;;3.40;;
8986;SDS011;4529;51.360;12.474;2022-08-01T02:19:00;3.73;;;3.43;;
8986;SDS011;4529;51.360;12.474;2022-08-01T02:24:07;3.93;;;3.30;;
8986;SDS011;4529;51.360;12.474;2022-08-01T02:29:10;3.97;;;3.67;;
8986;SDS011;4529;51.360;12.474;2022-08-01T02:34:13;4.70;;;4.30;;
8986;SDS011;4529;51.360;12.474;2022-08-01T02:39:17;4.60;;;4.30;;
8986;SDS011;4529;51.360;12.474;2022-08-01T02:44:23;5.07;;;4.50;;
8986;SDS011;4529;51.360;12.474;2022-08-01T02:49:26;4.97;;;3.70;;
8986;SDS011;4529;51.360;12.474;2022-08-01T02:54:32;4.23;;;3.83;;
8986;SDS011;4529;51.360;12.474;2022-08-01T02:59:37;3.70;;;3.50;;
8986;SDS011;4529;51.360;12.474;2022-08-01T03:04:40;3.83;;;3.53;;
8986;SDS011;4529;51.360;12.474;2022-08-01T03:09:43;4.73;;;3.40;;
8986;SDS011;4529;51.360;12.474;2022-08-01T03:14:46;4.13;;;3.70;;
8986;SDS011;4529;51.360;12.474;2022-08-01T03:19:50;3.50;;;3.30;;
8986;SDS011;4529;51.360;12.474;2022-08-01T03:24:53;3.90;;;3.60;;
8986;SDS011;4529;51.360;12.474;2022-08-01T03:29:56;3.50;;;3.20;;
8986;SDS011;4529;51.360;12.474;2022-08-01T03:35:00;5.70;;;3.07;;
8986;SDS011;4529;51.360;12.474;2022-08-01T03:40:04;3.30;;;3.10;;
8986;SDS011;4529;51.360;12.474;2022-08-01T03:45:29;4.33;;;3.10;;
8986;SDS011;4529;51.360;12.474;2022-08-01T03:50:28;3.43;;;2.90;;
8986;SDS011;4529;51.360;12.474;2022-08-01T03:55:31;3.10;;;2.90;;
8986;SDS011;4529;51.360;12.474;2022-08-01T04:00:35;2.90;;;2.70;;
8986;SDS011;4529;51.360;12.474;2022-08-01T04:05:41;3.10;;;2.80;;
8986;SDS011;4529;51.360;12.474;2022-08-01T04:10:44;2.93;;;2.73;;
8986;SDS011;4529;51.360;12.474;2022-08-01T04:15:48;2.93;;;2.70;;
8986;SDS011;4529;51.360;12.474;2022-08-01T04:20:51;2.70;;;2.50;;
8986;SDS011;4529;51.360;12.474;2022-08-01T04:25:55;2.60;;;2.40;;
8986;SDS011;4529;51.360;12.474;2022-08-01T04:30:58;2.30;;;2.17;;
8986;SDS011;4529;51.360;12.474;2022-08-01T04:36:03;3.17;;;2.43;;
8986;SDS011;4529;51.360;12.474;2022-08-01T04:41:06;2.80;;;2.60;;
8986;SDS011;4529;51.360;12.474;2022-08-01T04:46:10;3.87;;;2.90;;
8986;SDS011;4529;51.360;12.474;2022-08-01T04:51:14;2.70;;;2.60;;
8986;SDS011;4529;51.360;12.474;2022-08-01T04:56:19;2.60;;;2.50;;
8986;SDS011;4529;51.360;12.474;2022-08-01T05:01:22;2.70;;;2.50;;
8986;SDS011;4529;51.360;12.474;2022-08-01T05:06:26;3.50;;;2.53;;
8986;SDS011;4529;51.360;12.474;2022-08-01T05:11:31;3.10;;;2.90;;
8986;SDS011;4529;51.360;12.474;2022-08-01T05:16:35;3.00;;;2.60;;
8986;SDS011;4529;51.360;12.474;2022-08-01T05:21:39;2.60;;;2.40;;
8986;SDS011;4529;51.360;12.474;2022-08-01T05:26:43;2.37;;;2.17;;
8986;SDS011;4529;51.360;12.474;2022-08-01T05:31:47;2.60;;;2.40;;
8986;SDS011;4529;51.360;12.474;2022-08-01T05:36:51;2.67;;;2.47;;
8986;SDS011;4529;51.360;12.474;2022-08-01T05:41:55;3.00;;;2.70;;
8986;SDS011;4529;51.360;12.474;2022-08-01T05:46:59;2.50;;;2.30;;
8986;SDS011;4529;51.360;12.474;2022-08-01T05:52:04;2.47;;;2.27;;
8986;SDS011;4529;51.360;12.474;2022-08-01T05:57:08;2.40;;;2.20;;
8986;SDS011;4529;51.360;12.474;2022-08-01T06:02:12;2.50;;;2.30;;
8986;SDS011;4529;51.360;12.474;2022-08-01T06:07:16;2.03;;;1.93;;
8986;SDS011;4529;51.360;12.474;2022-08-01T06:12:20;2.40;;;2.30;;
8986;SDS011;4529;51.360;12.474;2022-08-01T06:17:24;2.40;;;2.20;;
8986;SDS011;4529;51.360;12.474;2022-08-01T06:22:28;2.50;;;2.30;;
8986;SDS011;4529;51.360;12.474;2022-08-01T06:27:35;2.10;;;2.00;;
8986;SDS011;4529;51.360;12.474;2022-08-01T06:32:39;2.50;;;2.30;;
8986;SDS011;4529;51.360;12.474;2022-08-01T06:37:43;2.83;;;2.63;;
8986;SDS011;4529;51.360;12.474;2022-08-01T06:42:47;3.97;;;3.67;;
8986;SDS011;4529;51.360;12.474;2022-08-01T06:47:51;3.20;;;2.40;;
8986;SDS011;4529;51.360;12.474;2022-08-01T06:52:55;3.00;;;2.20;;
8986;SDS011;4529;51.360;12.474;2022-08-01T06:57:59;1.83;;;1.73;;
8986;SDS011;4529;51.360;12.474;2022-08-01T07:03:02;2.00;;;1.90;;
8986;SDS011;4529;51.360;12.474;2022-08-01T07:08:06;1.90;;;1.80;;
8986;SDS011;4529;51.360;12.474;2022-08-01T07:13:10;2.33;;;2.10;;
8986;SDS011;4529;51.360;12.474;2022-08-01T07:18:14;2.03;;;1.93;;
8986;SDS011;4529;51.360;12.474;2022-08-01T07:23:19;3.80;;;2.00;;
8986;SDS011;4529;51.360;12.474;2022-08-01T07:28:22;1.93;;;1.83;;
8986;SDS011;4529;51.360;12.474;2022-08-01T07:33:28;2.07;;;1.87;;
8986;SDS011;4529;51.360;12.474;2022-08-01T07:38:31;1.53;;;1.53;;
8986;SDS011;4529;51.360;12.474;2022-08-01T07:43:35;1.30;;;1.30;;
8986;SDS011;4529;51.360;12.474;2022-08-01T07:48:38;1.30;;;1.30;;
8986;SDS011;4529;51.360;12.474;2022-08-01T07:53:42;2.13;;;1.43;;
8986;SDS011;4529;51.360;12.474;2022-08-01T07:58:45;1.90;;;1.20;;
8986;SDS011;4529;51.360;12.474;2022-08-01T08:03:48;1.27;;;1.27;;
8986;SDS011;4529;51.360;12.474;2022-08-01T08:08:52;1.73;;;1.40;;
8986;SDS011;4529;51.360;12.474;2022-08-01T08:13:55;1.40;;;1.30;;
8986;SDS011;4529;51.360;12.474;2022-08-01T08:18:59;1.30;;;1.27;;
8986;SDS011;4529;51.360;12.474;2022-08-01T08:24:03;1.40;;;1.30;;
8986;SDS011;4529;51.360;12.474;2022-08-01T08:29:07;1.20;;;1.10;;
8986;SDS011;4529;51.360;12.474;2022-08-01T08:34:11;1.17;;;1.17;;
8986;SDS011;4529;51.360;12.474;2022-08-01T08:39:15;1.40;;;0.90;;
8986;SDS011;4529;51.360;12.474;2022-08-01T08:44:19;0.80;;;0.80;;
8986;SDS011;4529;51.360;12.474;2022-08-01T08:49:25;1.10;;;1.00;;
8986;SDS011;4529;51.360;12.474;2022-08-01T08:54:28;0.90;;;0.90;;
8986;SDS011;4529;51.360;12.474;2022-08-01T08:59:37;1.30;;;1.20;;
8986;SDS011;4529;51.360;12.474;2022-08-01T09:04:40;1.43;;;1.33;;
8986;SDS011;4529;51.360;12.474;2022-08-01T09:09:44;1.33;;;1.33;;
8986;SDS011;4529;51.360;12.474;2022-08-01T09:14:48;1.20;;;1.20;;
8986;SDS011;4529;51.360;12.474;2022-08-01T09:19:54;1.20;;;1.20;;
8986;SDS011;4529;51.360;12.474;2022-08-01T09:25:00;1.83;;;1.30;;
8986;SDS011;4529;51.360;12.474;2022-08-01T09:30:10;1.03;;;1.03;;
8986;SDS011;4529;51.360;12.474;2022-08-01T09:35:27;0.93;;;0.80;;
8986;SDS011;4529;51.360;12.474;2022-08-01T09:40:46;1.23;;;0.90;;
8986;SDS011;4529;51.360;12.474;2022-08-01T09:45:49;1.00;;;1.00;;
8986;SDS011;4529;51.360;12.474;2022-08-01T09:50:53;1.50;;;1.00;;
8986;SDS011;4529;51.360;12.474;2022-08-01T09:56:07;1.20;;;1.20;;
8986;SDS011;4529;51.360;12.474;2022-08-01T10:01:00;1.20;;;1.20;;
8986;SDS011;4529;51.360;12.474;2022-08-01T10:06:18;1.10;;;1.10;;
8986;SDS011;4529;51.360;12.474;2022-08-01T10:11:08;1.00;;;1.00;;
8986;SDS011;4529;51.360;12.474;2022-08-01T10:16:12;2.10;;;1.00;;
8986;SDS011;4529;51.360;12.474;2022-08-01T10:21:16;0.90;;;0.90;;
8986;SDS011;4529;51.360;12.474;2022-08-01T10:26:20;0.90;;;0.90;;
8986;SDS011;4529;51.360;12.474;2022-08-01T10:31:25;1.00;;;0.87;;
8986;SDS011;4529;51.360;12.474;2022-08-01T10:36:29;0.90;;;0.90;;
8986;SDS011;4529;51.360;12.474;2022-08-01T10:41:33;1.30;;;1.20;;
8986;SDS011;4529;51.360;12.474;2022-08-01T10:46:38;2.77;;;1.43;;
8986;SDS011;4529;51.360;12.474;2022-08-01T10:51:41;1.30;;;1.30;;
8986;SDS011;4529;51.360;12.474;2022-08-01T10:56:46;2.20;;;1.50;;
8986;SDS011;4529;51.360;12.474;2022-08-01T11:01:58;1.83;;;1.70;;
8986;SDS011;4529;51.360;12.474;2022-08-01T11:07:05;1.70;;;1.60;;
8986;SDS011;4529;51.360;12.474;2022-08-01T11:17:36;2.10;;;1.90;;
8986;SDS011;4529;51.360;12.474;2022-08-01T11:33:19;2.53;;;2.33;;
8986;SDS011;4529;51.360;12.474;2022-08-01T11:44:03;2.20;;;2.00;;
8986;SDS011;4529;51.360;12.474;2022-08-01T11:49:25;2.40;;;2.20;;
8986;SDS011;4529;51.360;12.474;2022-08-01T11:54:46;2.40;;;2.30;;
8986;SDS011;4529;51.360;12.474;2022-08-01T11:59:55;2.53;;;2.43;;
8986;SDS011;4529;51.360;12.474;2022-08-01T12:05:04;2.87;;;2.33;;
8986;SDS011;4529;51.360;12.474;2022-08-01T12:10:10;2.60;;;2.00;;
8986;SDS011;4529;51.360;12.474;2022-08-01T12:15:13;2.20;;;2.10;;
8986;SDS011;4529;51.360;12.474;2022-08-01T12:20:19;2.10;;;2.00;;
8986;SDS011;4529;51.360;12.474;2022-08-01T12:25:22;2.23;;;2.10;;
8986;SDS011;4529;51.360;12.474;2022-08-01T12:30:26;2.50;;;2.40;;
8986;SDS011;4529;51.360;12.474;2022-08-01T12:35:29;2.07;;;1.97;;
8986;SDS011;4529;51.360;12.474;2022-08-01T12:40:36;2.33;;;2.23;;
8986;SDS011;4529;51.360;12.474;2022-08-01T12:45:40;2.40;;;2.30;;
8986;SDS011;4529;51.360;12.474;2022-08-01T12:50:47;2.00;;;1.90;;
8986;SDS011;4529;51.360;12.474;2022-08-01T12:55:50;1.90;;;1.90;;
8986;SDS011;4529;51.360;12.474;2022-08-01T13:01:02;1.70;;;1.60;;
8986;SDS011;4529;51.360;12.474;2022-08-01T13:05:57;1.47;;;1.47;;
8986;SDS011;4529;51.360;12.474;2022-08-01T13:11:02;1.70;;;1.60;;
8986;SDS011;4529;51.360;12.474;2022-08-01T13:16:08;1.80;;;1.70;;
8986;SDS011;4529;51.360;12.474;2022-08-01T13:21:16;1.70;;;1.70;;
8986;SDS011;4529;51.360;12.474;2022-08-01T13:26:18;2.10;;;2.00;;
8986;SDS011;4529;51.360;12.474;2022-08-01T13:31:22;1.93;;;1.83;;
8986;SDS011;4529;51.360;12.474;2022-08-01T13:36:25;3.43;;;1.80;;
8986;SDS011;4529;51.360;12.474;2022-08-01T13:41:32;1.70;;;1.70;;
8986;SDS011;4529;51.360;12.474;2022-08-01T13:46:32;1.80;;;1.70;;
8986;SDS011;4529;51.360;12.474;2022-08-01T13:51:36;1.40;;;1.40;;
8986;SDS011;4529;51.360;12.474;2022-08-01T13:56:39;1.33;;;1.33;;
8986;SDS011;4529;51.360;12.474;2022-08-01T14:01:43;1.40;;;1.30;;
8986;SDS011;4529;51.360;12.474;2022-08-01T14:06:46;1.30;;;1.30;;
8986;SDS011;4529;51.360;12.474;2022-08-01T14:11:50;1.30;;;1.30;;
8986;SDS011;4529;51.360;12.474;2022-08-01T14:16:53;1.33;;;1.30;;
8986;SDS011;4529;51.360;12.474;2022-08-01T14:21:57;1.30;;;1.30;;
8986;SDS011;4529;51.360;12.474;2022-08-01T14:27:06;1.60;;;1.50;;
8986;SDS011;4529;51.360;12.474;2022-08-01T14:32:10;1.93;;;1.60;;
8986;SDS011;4529;51.360;12.474;2022-08-01T14:37:13;2.07;;;1.50;;
8986;SDS011;4529;51.360;12.474;2022-08-01T14:42:17;2.13;;;1.40;;
8986;SDS011;4529;51.360;12.474;2022-08-01T14:47:20;1.63;;;1.47;;
8986;SDS011;4529;51.360;12.474;2022-08-01T14:52:24;1.43;;;1.33;;
8986;SDS011;4529;51.360;12.474;2022-08-01T14:57:28;1.33;;;1.30;;
8986;SDS011;4529;51.360;12.474;2022-08-01T15:02:31;1.67;;;1.57;;
8986;SDS011;4529;51.360;12.474;2022-08-01T15:07:35;1.53;;;1.40;;
8986;SDS011;4529;51.360;12.474;2022-08-01T15:12:38;1.40;;;1.30;;
8986;SDS011;4529;51.360;12.474;2022-08-01T15:17:42;1.30;;;1.30;;
8986;SDS011;4529;51.360;12.474;2022-08-01T15:22:45;1.30;;;1.30;;
8986;SDS011;4529;51.360;12.474;2022-08-01T15:27:49;1.57;;;1.47;;
8986;SDS011;4529;51.360;12.474;2022-08-01T15:32:52;1.70;;;1.60;;
8986;SDS011;4529;51.360;12.474;2022-08-01T15:37:56;2.13;;;1.83;;
8986;SDS011;4529;51.360;12.474;2022-08-01T15:42:59;2.33;;;2.10;;
8986;SDS011;4529;51.360;12.474;2022-08-01T15:48:03;2.30;;;2.20;;
8986;SDS011;4529;51.360;12.474;2022-08-01T15:53:06;2.23;;;2.13;;
8986;SDS011;4529;51.360;12.474;2022-08-01T15:58:10;2.20;;;2.10;;
8986;SDS011;4529;51.360;12.474;2022-08-01T16:03:13;2.27;;;2.10;;
8986;SDS011;4529;51.360;12.474;2022-08-01T16:08:17;2.30;;;1.93;;
8986;SDS011;4529;51.360;12.474;2022-08-01T16:13:20;2.00;;;1.90;;
8986;SDS011;4529;51.360;12.474;2022-08-01T16:18:24;4.67;;;1.80;;
8986;SDS011;4529;51.360;12.474;2022-08-01T16:23:27;2.53;;;1.70;;
8986;SDS011;4529;51.360;12.474;2022-08-01T16:28:31;1.47;;;1.47;;
8986;SDS011;4529;51.360;12.474;2022-08-01T16:33:34;1.50;;;1.40;;
8986;SDS011;4529;51.360;12.474;2022-08-01T16:38:37;1.60;;;1.50;;
8986;SDS011;4529;51.360;12.474;2022-08-01T16:43:41;1.27;;;1.27;;
8986;SDS011;4529;51.360;12.474;2022-08-01T16:48:45;1.83;;;1.40;;
8986;SDS011;4529;51.360;12.474;2022-08-01T16:53:49;1.27;;;1.27;;
8986;SDS011;4529;51.360;12.474;2022-08-01T16:58:53;1.07;;;1.07;;
8986;SDS011;4529;51.360;12.474;2022-08-01T17:03:57;1.17;;;1.17;;
8986;SDS011;4529;51.360;12.474;2022-08-01T17:09:00;1.50;;;1.40;;
8986;SDS011;4529;51.360;12.474;2022-08-01T17:14:04;1.50;;;1.40;;
8986;SDS011;4529;51.360;12.474;2022-08-01T17:19:07;1.40;;;1.40;;
8986;SDS011;4529;51.360;12.474;2022-08-01T17:24:11;1.40;;;1.30;;
8986;SDS011;4529;51.360;12.474;2022-08-01T17:29:14;1.20;;;1.20;;
8986;SDS011;4529;51.360;12.474;2022-08-01T17:34:18;1.40;;;1.30;;
8986;SDS011;4529;51.360;12.474;2022-08-01T17:39:21;1.10;;;1.10;;
8986;SDS011;4529;51.360;12.474;2022-08-01T17:44:25;1.30;;;1.30;;
8986;SDS011;4529;51.360;12.474;2022-08-01T17:49:28;1.50;;;1.40;;
8986;SDS011;4529;51.360;12.474;2022-08-01T17:54:31;1.13;;;1.13;;
8986;SDS011;4529;51.360;12.474;2022-08-01T17:59:35;3.23;;;1.37;;
8986;SDS011;4529;51.360;12.474;2022-08-01T18:04:38;1.50;;;1.20;;
8986;SDS011;4529;51.360;12.474;2022-08-01T18:09:42;1.50;;;1.40;;
8986;SDS011;4529;51.360;12.474;2022-08-01T18:14:46;1.10;;;1.10;;
8986;SDS011;4529;51.360;12.474;2022-08-01T18:19:50;1.00;;;1.00;;
8986;SDS011;4529;51.360;12.474;2022-08-01T18:24:54;1.10;;;1.03;;
8986;SDS011;4529;51.360;12.474;2022-08-01T18:29:58;0.90;;;0.90;;
8986;SDS011;4529;51.360;12.474;2022-08-01T18:35:01;1.00;;;1.00;;
8986;SDS011;4529;51.360;12.474;2022-08-01T18:40:06;1.30;;;1.20;;
8986;SDS011;4529;51.360;12.474;2022-08-01T18:45:09;1.07;;;1.03;;
8986;SDS011;4529;51.360;12.474;2022-08-01T18:50:13;2.83;;;1.10;;
8986;SDS011;4529;51.360;12.474;2022-08-01T18:55:16;1.00;;;1.00;;
8986;SDS011;4529;51.360;12.474;2022-08-01T19:00:19;2.00;;;1.10;;
8986;SDS011;4529;51.360;12.474;2022-08-01T19:05:23;1.20;;;1.20;;
8986;SDS011;4529;51.360;12.474;2022-08-01T19:10:26;1.10;;;1.10;;
8986;SDS011;4529;51.360;12.474;2022-08-01T19:15:30;1.43;;;1.10;;
8986;SDS011;4529;51.360;12.474;2022-08-01T19:20:33;1.27;;;1.27;;
8986;SDS011;4529;51.360;12.474;2022-08-01T19:25:37;1.47;;;1.30;;
8986;SDS011;4529;51.360;12.474;2022-08-01T19:30:40;2.10;;;1.37;;
8986;SDS011;4529;51.360;12.474;2022-08-01T19:35:44;2.50;;;1.30;;
8986;SDS011;4529;51.360;12.474;2022-08-01T19:40:47;1.33;;;1.23;;
8986;SDS011;4529;51.360;12.474;2022-08-01T19:45:51;1.30;;;1.20;;
8986;SDS011;4529;51.360;12.474;2022-08-01T19:50:54;1.50;;;1.40;;
8986;SDS011;4529;51.360;12.474;2022-08-01T19:55:58;1.70;;;1.40;;
8986;SDS011;4529;51.360;12.474;2022-08-01T20:01:03;1.73;;;1.53;;
8986;SDS011;4529;51.360;12.474;2022-08-01T20:06:06;2.13;;;1.53;;
8986;SDS011;4529;51.360;12.474;2022-08-01T20:11:10;1.53;;;1.43;;
8986;SDS011;4529;51.360;12.474;2022-08-01T20:16:14;1.70;;;1.60;;
8986;SDS011;4529;51.360;12.474;2022-08-01T20:21:19;1.50;;;1.40;;
8986;SDS011;4529;51.360;12.474;2022-08-01T20:26:23;1.83;;;1.40;;
8986;SDS011;4529;51.360;12.474;2022-08-01T20:31:27;4.20;;;1.50;;
8986;SDS011;4529;51.360;12.474;2022-08-01T20:36:31;3.03;;;1.67;;
8986;SDS011;4529;51.360;12.474;2022-08-01T20:41:35;1.40;;;1.40;;
8986;SDS011;4529;51.360;12.474;2022-08-01T20:46:39;1.70;;;1.60;;
8986;SDS011;4529;51.360;12.474;2022-08-01T20:51:43;1.70;;;1.60;;
8986;SDS011;4529;51.360;12.474;2022-08-01T20:56:57;1.70;;;1.60;;
8986;SDS011;4529;51.360;12.474;2022-08-01T21:02:05;1.37;;;1.27;;
8986;SDS011;4529;51.360;12.474;2022-08-01T21:07:35;3.23;;;2.00;;
8986;SDS011;4529;51.360;12.474;2022-08-01T21:12:42;1.60;;;1.50;;
8986;SDS011;4529;51.360;12.474;2022-08-01T21:18:06;1.73;;;1.50;;
8986;SDS011;4529;51.360;12.474;2022-08-01T21:23:19;2.70;;;1.50;;
8986;SDS011;4529;51.360;12.474;2022-08-01T21:28:26;1.50;;;1.40;;
8986;SDS011;4529;51.360;12.474;2022-08-01T21:33:30;1.43;;;1.30;;
8986;SDS011;4529;51.360;12.474;2022-08-01T21:38:34;1.90;;;1.50;;
8986;SDS011;4529;51.360;12.474;2022-08-01T21:43:38;1.60;;;1.50;;
8986;SDS011;4529;51.360;12.474;2022-08-01T21:48:43;2.47;;;1.43;;
8986;SDS011;4529;51.360;12.474;2022-08-01T21:53:48;2.63;;;1.50;;
8986;SDS011;4529;51.360;12.474;2022-08-01T21:59:41;1.70;;;1.60;;
8986;SDS011;4529;51.360;12.474;2022-08-01T22:04:14;1.70;;;1.60;;
8986;SDS011;4529;51.360;12.474;2022-08-01T22:09:19;2.10;;;1.87;;
8986;SDS011;4529;51.360;12.474;2022-08-01T22:14:23;3.10;;;1.60;;
8986;SDS011;4529;51.360;12.474;2022-08-01T22:19:27;2.20;;;1.50;;
8986;SDS011;4529;51.360;12.474;2022-08-01T22:24:31;1.67;;;1.57;;
8986;SDS011;4529;51.360;12.474;2022-08-01T22:29:35;2.13;;;1.70;;
8986;SDS011;4529;51.360;12.474;2022-08-01T22:34:39;1.80;;;1.70;;
8986;SDS011;4529;51.360;12.474;2022-08-01T22:39:43;1.70;;;1.60;;
8986;SDS011;4529;51.360;12.474;2022-08-01T22:44:57;3.13;;;1.80;;
8986;SDS011;4529;51.360;12.474;2022-08-01T22:50:04;2.73;;;1.50;;
8986;SDS011;4529;51.360;12.474;2022-08-01T22:55:08;2.50;;;1.70;;
8986;SDS011;4529;51.360;12.474;2022-08-01T23:00:11;3.37;;;1.80;;
8986;SDS011;4529;51.360;12.474;2022-08-01T23:05:24;1.70;;;1.60;;
8986;SDS011;4529;51.360;12.474;2022-08-01T23:10:24;1.97;;;1.83;;
8986;SDS011;4529;51.360;12.474;2022-08-01T23:15:28;2.90;;;2.00;;
8986;SDS011;4529;51.360;12.474;2022-08-01T23:20:33;2.20;;;2.00;;
8986;SDS011;4529;51.360;12.474;2022-08-01T23:25:36;1.80;;;1.70;;
8986;SDS011;4529;51.360;12.474;2022-08-01T23:30:38;2.70;;;2.50;;
8986;SDS011;4529;51.360;12.474;2022-08-01T23:35:41;2.87;;;1.90;;
8986;SDS011;4529;51.360;12.474;2022-08-01T23:40:45;2.30;;;1.80;;
8986;SDS011;4529;51.360;12.474;2022-08-01T23:45:48;3.27;;;2.20;;
8986;SDS011;4529;51.360;12.474;2022-08-01T23:50:55;2.83;;;2.00;;
8986;SDS011;4529;51.360;12.474;2022-08-01T23:56:04;4.20;;;2.20;;
